createdAt,value
2023-03-01T00:01:17.574Z,5.20
2023-03-01T00:03:44.632Z,5.32
2023-03-01T00:06:11.899Z,5.57
2023-03-01T00:08:38.939Z,5.63
2023-03-01T00:11:13.930Z,5.40
2023-03-01T00:13:41.852Z,5.70
2023-03-01T00:18:37.648Z,6.00
2023-03-01T00:21:04.714Z,5.07
2023-03-01T00:23:31.932Z,5.50
2023-03-01T00:25:58.858Z,5.55
2023-03-01T00:28:25.822Z,6.47
2023-03-01T00:30:55.390Z,5.97
2023-03-01T00:33:22.356Z,5.32
2023-03-01T00:35:49.323Z,5.80
2023-03-01T00:38:16.548Z,6.23
2023-03-01T00:40:43.417Z,5.95
2023-03-01T00:43:12.956Z,6.47
2023-03-01T00:45:40.270Z,5.47
2023-03-01T00:48:07.499Z,5.68
2023-03-01T00:50:34.309Z,5.55
2023-03-01T00:53:01.165Z,5.72
2023-03-01T00:55:27.999Z,5.85
2023-03-01T00:57:54.877Z,5.18
2023-03-01T01:00:21.940Z,5.87
2023-03-01T01:02:49.727Z,5.65
2023-03-01T01:05:21.727Z,5.53
2023-03-01T01:07:52.428Z,6.00
2023-03-01T01:10:19.312Z,5.63
2023-03-01T01:12:47.010Z,5.63
2023-03-01T01:15:15.137Z,5.38
2023-03-01T01:17:42.378Z,5.43
2023-03-01T01:20:10.069Z,6.13
2023-03-01T01:22:36.870Z,6.10
2023-03-01T01:25:03.802Z,5.95
2023-03-01T01:27:31.052Z,6.03
2023-03-01T01:29:57.872Z,5.82
2023-03-01T01:32:26.955Z,5.85
2023-03-01T01:34:54.087Z,6.40
2023-03-01T01:37:21.167Z,5.77
2023-03-01T01:39:48.073Z,6.32
2023-03-01T01:42:19.426Z,6.03
2023-03-01T01:44:49.513Z,6.43
2023-03-01T01:47:23.047Z,6.00
2023-03-01T01:49:57.146Z,6.65
2023-03-01T01:52:30.646Z,6.65
2023-03-01T01:55:08.155Z,7.22
2023-03-01T02:00:13.368Z,6.65
2023-03-01T02:02:42.171Z,7.32
2023-03-01T02:05:26.731Z,7.20
2023-03-01T02:07:54.124Z,6.75
2023-03-01T02:10:24.310Z,7.80
2023-03-01T02:12:52.002Z,7.45
2023-03-01T02:15:19.025Z,7.75
2023-03-01T02:17:46.188Z,7.13
2023-03-01T02:20:36.362Z,7.55
2023-03-01T02:23:03.406Z,7.43
2023-03-01T02:25:56.884Z,7.90
2023-03-01T02:28:34.111Z,7.93
2023-03-01T02:31:25.384Z,8.35
2023-03-01T02:33:53.739Z,7.60
2023-03-01T02:36:31.549Z,8.02
2023-03-01T02:39:00.632Z,7.82
2023-03-01T02:41:31.658Z,7.88
2023-03-01T02:43:59.217Z,7.68
2023-03-01T02:46:27.044Z,8.80
2023-03-01T02:51:36.280Z,7.80
2023-03-01T02:54:22.157Z,8.07
2023-03-01T02:56:50.316Z,7.93
2023-03-01T02:59:23.265Z,7.68
2023-03-01T03:01:50.775Z,8.05
2023-03-01T03:04:29.376Z,8.20
2023-03-01T03:06:56.406Z,7.43
2023-03-01T03:09:23.320Z,7.57
2023-03-01T03:11:50.509Z,7.28
2023-03-01T03:14:18.039Z,8.05
2023-03-01T03:16:49.551Z,7.55
2023-03-01T03:19:18.241Z,7.68
2023-03-01T03:21:45.355Z,7.32
2023-03-01T03:24:12.154Z,7.68
2023-03-01T03:26:39.102Z,7.47
2023-03-01T03:29:05.915Z,7.67
2023-03-01T03:31:32.749Z,7.30
2023-03-01T03:33:59.889Z,6.90
2023-03-01T03:36:27.054Z,6.78
2023-03-01T03:38:53.835Z,8.00
2023-03-01T03:41:20.878Z,7.55
2023-03-01T03:43:47.720Z,7.72
2023-03-01T03:46:14.525Z,7.35
2023-03-01T03:48:44.697Z,7.40
2023-03-01T03:51:13.952Z,7.80
2023-03-01T03:53:41.569Z,6.43
2023-03-01T03:56:09.025Z,7.07
2023-03-01T03:58:36.227Z,7.55
2023-03-01T04:01:03.334Z,7.40
2023-03-01T04:03:32.939Z,7.50
2023-03-01T04:06:01.857Z,7.40
2023-03-01T04:08:29.481Z,6.47
2023-03-01T04:11:24.446Z,7.40
2023-03-01T04:13:53.282Z,6.72
2023-03-01T04:16:20.273Z,6.53
2023-03-01T04:18:47.516Z,7.53
2023-03-01T04:21:14.564Z,7.13
2023-03-01T04:23:42.062Z,7.10
2023-03-01T04:26:09.219Z,7.50
2023-03-01T04:28:39.185Z,7.88
2023-03-01T04:31:17.320Z,7.78
2023-03-01T04:33:45.438Z,7.50
2023-03-01T04:36:14.144Z,7.50
2023-03-01T04:38:41.786Z,7.13
2023-03-01T04:41:12.009Z,8.07
2023-03-01T04:43:39.113Z,8.70
2023-03-01T04:46:10.163Z,8.45
2023-03-01T04:48:38.930Z,7.75
2023-03-01T04:51:06.663Z,8.05
2023-03-01T04:53:34.330Z,7.68
2023-03-01T04:56:01.172Z,8.13
2023-03-01T04:58:28.308Z,8.38
2023-03-01T05:00:56.233Z,6.10
2023-03-01T05:03:23.144Z,7.90
2023-03-01T05:05:51.864Z,7.70
2023-03-01T05:08:19.045Z,7.85
2023-03-01T05:10:49.796Z,8.07
2023-03-01T05:13:21.858Z,7.88
2023-03-01T05:15:56.668Z,7.63
2023-03-01T05:18:26.773Z,7.72
2023-03-01T05:21:02.067Z,7.35
2023-03-01T05:23:28.894Z,7.85
2023-03-01T05:26:00.422Z,8.17
2023-03-01T05:28:29.156Z,7.70
2023-03-01T05:30:56.549Z,8.18
2023-03-01T05:33:24.006Z,8.48
2023-03-01T05:35:52.802Z,7.38
2023-03-01T05:38:20.165Z,7.35
2023-03-01T05:40:48.826Z,7.35
2023-03-01T05:43:17.466Z,7.90
2023-03-01T05:45:44.791Z,7.63
2023-03-01T05:48:12.672Z,7.60
2023-03-01T05:53:12.193Z,7.40
2023-03-01T05:55:39.399Z,8.30
2023-03-01T05:58:11.831Z,8.27
2023-03-01T06:00:40.534Z,7.88
2023-03-01T06:03:07.536Z,8.13
2023-03-01T06:05:34.375Z,8.25
2023-03-01T06:08:02.236Z,7.70
2023-03-01T06:12:56.766Z,8.45
2023-03-01T06:15:24.231Z,8.27
2023-03-01T06:17:51.549Z,8.55
2023-03-01T06:20:23.563Z,7.85
2023-03-01T06:22:51.320Z,8.23
2023-03-01T06:25:21.846Z,8.75
2023-03-01T06:27:53.459Z,8.68
2023-03-01T06:30:22.063Z,8.90
2023-03-01T06:32:49.510Z,8.05
2023-03-01T06:35:20.732Z,7.85
2023-03-01T06:37:48.773Z,7.90
2023-03-01T06:40:16.133Z,8.95
2023-03-01T06:42:44.815Z,8.48
2023-03-01T06:45:12.477Z,8.73
2023-03-01T06:47:39.383Z,9.18
2023-03-01T06:50:07.124Z,9.53
2023-03-01T06:52:34.141Z,10.07
2023-03-01T06:55:01.682Z,9.38
2023-03-01T06:57:28.810Z,9.05
2023-03-01T06:59:55.723Z,9.95
2023-03-01T07:02:23.067Z,10.63
2023-03-01T07:04:53.508Z,9.68
2023-03-01T07:07:20.972Z,9.18
2023-03-01T07:09:49.464Z,10.10
2023-03-01T07:12:16.453Z,10.30
2023-03-01T07:14:45.198Z,10.77
2023-03-01T07:17:12.141Z,10.38
2023-03-01T07:19:38.965Z,10.57
2023-03-01T07:22:08.607Z,11.35
2023-03-01T07:24:35.445Z,10.85
2023-03-01T07:27:02.274Z,10.60
2023-03-01T07:29:29.845Z,11.10
2023-03-01T07:31:56.827Z,11.75
2023-03-01T07:34:23.637Z,11.93
2023-03-01T07:36:50.651Z,11.50
2023-03-01T07:39:18.738Z,12.57
2023-03-01T07:41:46.724Z,12.13
2023-03-01T07:44:13.525Z,12.67
2023-03-01T07:46:40.332Z,13.27
2023-03-01T07:49:07.264Z,13.07
2023-03-01T07:51:34.198Z,19.08
2023-03-01T07:54:01.409Z,14.45
2023-03-01T07:56:28.366Z,15.82
2023-03-01T07:58:55.237Z,16.15
2023-03-01T08:01:25.474Z,19.30
2023-03-01T08:03:52.492Z,16.25
2023-03-01T08:06:20.213Z,14.47
2023-03-01T08:08:47.333Z,14.68
2023-03-01T08:11:15.496Z,15.57
2023-03-01T08:13:43.389Z,15.65
2023-03-01T08:18:43.760Z,14.35
2023-03-01T08:21:18.417Z,14.30
2023-03-01T08:23:45.580Z,14.38
2023-03-01T08:26:19.368Z,15.55
2023-03-01T08:28:47.139Z,14.00
2023-03-01T08:31:18.376Z,13.80
2023-03-01T08:33:45.562Z,13.32
2023-03-01T08:36:12.478Z,13.10
2023-03-01T08:38:39.372Z,12.73
2023-03-01T08:41:08.926Z,13.45
2023-03-01T08:43:36.753Z,12.02
2023-03-01T08:46:03.631Z,11.95
2023-03-01T08:48:30.517Z,11.10
2023-03-01T08:51:07.618Z,10.70
2023-03-01T08:53:34.601Z,9.75
2023-03-01T08:56:03.491Z,10.70
2023-03-01T08:58:33.140Z,10.50
2023-03-01T09:01:00.350Z,9.65
2023-03-01T09:03:28.039Z,8.73
2023-03-01T09:06:01.836Z,8.60
2023-03-01T09:08:28.923Z,8.73
2023-03-01T09:10:55.996Z,8.25
2023-03-01T09:13:25.760Z,8.15
2023-03-01T09:15:52.994Z,8.15
2023-03-01T09:18:19.874Z,7.68
2023-03-01T09:20:46.690Z,8.20
2023-03-01T09:23:13.484Z,7.50
2023-03-01T09:25:40.388Z,6.15
2023-03-01T09:28:07.362Z,6.15
2023-03-01T09:30:34.325Z,6.40
2023-03-01T09:33:01.121Z,6.28
2023-03-01T09:35:28.980Z,6.30
2023-03-01T09:37:55.932Z,6.57
2023-03-01T09:40:28.249Z,6.03
2023-03-01T09:43:03.817Z,5.50
2023-03-01T09:45:41.974Z,5.70
2023-03-01T09:48:34.181Z,4.75
2023-03-01T09:51:08.728Z,5.00
2023-03-01T09:53:38.646Z,4.45
2023-03-01T09:56:22.388Z,4.60
2023-03-01T09:58:59.911Z,5.38
2023-03-01T10:01:57.701Z,5.20
2023-03-01T10:04:50.104Z,5.60
2023-03-01T10:07:37.466Z,4.63
2023-03-01T10:10:09.715Z,4.30
2023-03-01T10:12:41.421Z,5.03
2023-03-01T10:15:17.728Z,4.70
2023-03-01T10:17:47.819Z,4.78
2023-03-01T10:20:40.254Z,5.00
2023-03-01T10:23:10.107Z,4.95
2023-03-01T10:25:41.319Z,5.20
2023-03-01T10:28:26.796Z,4.80
2023-03-01T10:30:54.563Z,5.00
2023-03-01T10:33:34.855Z,5.20
2023-03-01T10:36:01.889Z,4.63
2023-03-01T10:38:32.766Z,4.88
2023-03-01T10:41:07.781Z,4.35
2023-03-01T10:43:55.058Z,4.38
2023-03-01T10:46:34.247Z,4.28
2023-03-01T10:49:29.485Z,4.80
2023-03-01T10:51:56.802Z,4.18
2023-03-01T10:54:32.974Z,3.83
2023-03-01T10:57:02.848Z,3.45
2023-03-01T10:59:36.060Z,3.20
2023-03-01T11:02:25.906Z,4.03
2023-03-01T11:05:01.360Z,4.18
2023-03-01T11:07:28.710Z,3.80
2023-03-01T11:09:55.970Z,3.43
2023-03-01T11:12:23.040Z,4.13
2023-03-01T11:14:53.751Z,4.35
2023-03-01T11:17:29.995Z,3.75
2023-03-01T11:20:08.104Z,3.80
2023-03-01T11:22:36.942Z,4.70
2023-03-01T11:25:10.447Z,4.10
2023-03-01T11:27:53.172Z,3.50
2023-03-01T11:30:33.297Z,3.55
2023-03-01T11:33:20.538Z,3.67
2023-03-01T11:36:03.056Z,3.90
2023-03-01T11:38:35.109Z,3.55
2023-03-01T11:41:22.802Z,3.42
2023-03-01T11:44:06.595Z,3.10
2023-03-01T11:46:33.616Z,2.80
2023-03-01T11:49:21.508Z,3.50
2023-03-01T11:54:48.914Z,2.90
2023-03-01T11:57:43.902Z,3.17
2023-03-01T12:00:23.186Z,3.28
2023-03-01T12:02:55.904Z,3.33
2023-03-01T12:05:31.583Z,3.67
2023-03-01T12:08:04.215Z,3.42
2023-03-01T12:11:02.894Z,3.10
2023-03-01T12:13:54.335Z,3.47
2023-03-01T12:16:37.540Z,3.08
2023-03-01T12:19:22.435Z,3.60
2023-03-01T12:22:16.645Z,3.33
2023-03-01T12:24:52.463Z,3.50
2023-03-01T12:27:50.301Z,3.45
2023-03-01T12:33:03.846Z,3.60
2023-03-01T12:35:36.354Z,3.83
2023-03-01T12:38:24.198Z,3.80
2023-03-01T12:41:06.172Z,3.47
2023-03-01T12:44:02.146Z,4.03
2023-03-01T12:47:03.165Z,4.10
2023-03-01T12:49:35.746Z,3.95
2023-03-01T12:52:13.200Z,3.88
2023-03-01T12:54:40.452Z,4.30
2023-03-01T12:57:27.546Z,4.30
2023-03-01T13:00:01.619Z,4.57
2023-03-01T13:03:01.318Z,4.00
2023-03-01T13:05:55.880Z,4.43
2023-03-01T13:08:45.065Z,4.47
2023-03-01T13:11:22.999Z,4.05
2023-03-01T13:16:29.920Z,3.70
2023-03-01T13:19:17.272Z,3.70
2023-03-01T13:21:46.160Z,3.72
2023-03-01T13:24:29.849Z,3.85
2023-03-01T13:27:26.084Z,3.50
2023-03-01T13:29:58.321Z,3.85
2023-03-01T13:32:43.017Z,3.90
2023-03-01T13:35:17.677Z,3.88
2023-03-01T13:37:45.317Z,3.67
2023-03-01T13:40:19.584Z,3.50
2023-03-01T13:43:16.238Z,3.10
2023-03-01T13:45:44.554Z,3.20
2023-03-01T13:48:11.445Z,3.13
2023-03-01T13:50:47.533Z,3.20
2023-03-01T13:53:19.309Z,3.03
2023-03-01T13:55:57.311Z,3.05
2023-03-01T13:58:27.824Z,3.17
2023-03-01T14:01:01.713Z,2.90
2023-03-01T14:03:30.844Z,2.97
2023-03-01T14:06:17.342Z,2.97
2023-03-01T14:08:47.508Z,3.17
2023-03-01T14:11:38.740Z,3.03
2023-03-01T14:14:40.238Z,2.70
2023-03-01T14:17:15.655Z,2.90
2023-03-01T14:19:46.157Z,2.30
2023-03-01T14:22:27.787Z,2.60
2023-03-01T14:25:00.549Z,2.40
2023-03-01T14:27:37.350Z,3.10
2023-03-01T14:30:23.761Z,2.53
2023-03-01T14:32:56.233Z,2.50
2023-03-01T14:35:42.666Z,2.63
2023-03-01T14:38:22.238Z,2.72
2023-03-01T14:40:56.763Z,2.90
2023-03-01T14:43:26.777Z,3.05
2023-03-01T14:45:53.775Z,2.70
2023-03-01T14:48:21.275Z,2.70
2023-03-01T14:50:49.376Z,2.70
2023-03-01T14:53:26.496Z,2.78
2023-03-01T14:55:55.822Z,2.65
2023-03-01T14:58:25.367Z,2.92
2023-03-01T15:01:17.359Z,2.42
2023-03-01T15:03:52.539Z,2.50
2023-03-01T15:06:22.634Z,2.80
2023-03-01T15:08:55.122Z,2.60
2023-03-01T15:11:30.707Z,3.00
2023-03-01T15:13:57.726Z,2.60
2023-03-01T15:16:31.402Z,2.67
2023-03-01T15:19:01.773Z,2.47
2023-03-01T15:21:33.336Z,2.55
2023-03-01T15:24:20.893Z,2.80
2023-03-01T15:27:02.880Z,2.53
2023-03-01T15:29:32.544Z,2.97
2023-03-01T15:32:35.394Z,2.70
2023-03-01T15:35:35.670Z,2.80
2023-03-01T15:38:02.966Z,3.00
2023-03-01T15:40:33.767Z,2.53
2023-03-01T15:43:06.380Z,3.13
2023-03-01T15:45:39.568Z,2.95
2023-03-01T15:48:21.828Z,3.10
2023-03-01T15:50:56.249Z,3.03
2023-03-01T15:53:27.770Z,3.00
2023-03-01T15:55:54.996Z,3.28
2023-03-01T15:58:24.530Z,3.17
2023-03-01T16:01:02.086Z,3.10
2023-03-01T16:03:29.669Z,3.35
2023-03-01T16:05:56.981Z,3.22
2023-03-01T16:08:24.478Z,3.30
2023-03-01T16:10:52.415Z,2.92
2023-03-01T16:13:20.342Z,2.80
2023-03-01T16:15:47.763Z,2.90
2023-03-01T16:18:14.834Z,3.03
2023-03-01T16:20:41.959Z,3.08
2023-03-01T16:23:11.514Z,2.67
2023-03-01T16:25:38.794Z,3.10
2023-03-01T16:28:10.045Z,3.17
2023-03-01T16:30:39.014Z,2.85
2023-03-01T16:33:24.187Z,2.67
2023-03-01T16:35:53.746Z,1.95
2023-03-01T16:38:20.672Z,2.00
2023-03-01T16:40:52.503Z,2.20
2023-03-01T16:43:19.685Z,2.10
2023-03-01T16:45:48.863Z,2.20
2023-03-01T16:48:15.901Z,2.03
2023-03-01T16:50:43.297Z,1.98
2023-03-01T16:53:10.899Z,2.53
2023-03-01T16:55:39.042Z,2.40
2023-03-01T17:00:35.602Z,3.17
2023-03-01T17:03:02.661Z,2.50
2023-03-01T17:05:29.526Z,2.15
2023-03-01T17:07:58.126Z,2.20
2023-03-01T17:10:25.456Z,2.58
2023-03-01T17:12:52.269Z,2.37
2023-03-01T17:15:19.322Z,2.03
2023-03-01T17:17:46.373Z,2.40
2023-03-01T17:20:13.667Z,2.20
2023-03-01T17:22:40.962Z,1.48
2023-03-01T17:25:11.705Z,2.40
2023-03-01T17:27:41.161Z,2.13
2023-03-01T17:30:09.951Z,1.98
2023-03-01T17:32:36.897Z,1.77
2023-03-01T17:35:04.401Z,2.08
2023-03-01T17:37:31.234Z,2.03
2023-03-01T17:39:58.209Z,2.55
2023-03-01T17:42:25.291Z,2.00
2023-03-01T17:44:52.501Z,2.20
2023-03-01T17:47:19.472Z,1.90
2023-03-01T17:49:46.439Z,2.25
2023-03-01T17:52:13.300Z,2.65
2023-03-01T17:54:40.349Z,2.25
2023-03-01T17:57:07.680Z,2.53
2023-03-01T17:59:37.382Z,2.22
2023-03-01T18:02:04.353Z,2.50
2023-03-01T18:04:32.381Z,2.42
2023-03-01T18:09:30.512Z,2.27
2023-03-01T18:11:57.492Z,2.40
2023-03-01T18:14:25.893Z,2.50
2023-03-01T18:16:52.841Z,2.67
2023-03-01T18:19:21.323Z,2.78
2023-03-01T18:21:48.119Z,3.40
2023-03-01T18:24:15.195Z,3.35
2023-03-01T18:26:42.027Z,2.80
2023-03-01T18:29:10.510Z,3.10
2023-03-01T18:31:37.425Z,3.38
2023-03-01T18:34:04.453Z,3.25
2023-03-01T18:36:34.500Z,2.78
2023-03-01T18:39:06.099Z,2.53
2023-03-01T18:41:33.886Z,2.08
2023-03-01T18:44:02.224Z,2.40
2023-03-01T18:46:29.359Z,2.63
2023-03-01T18:48:56.570Z,2.90
2023-03-01T18:51:26.417Z,2.40
2023-03-01T18:53:53.743Z,2.30
2023-03-01T18:56:20.690Z,2.35
2023-03-01T18:58:47.455Z,2.67
2023-03-01T19:01:25.696Z,2.40
2023-03-01T19:03:53.854Z,2.38
2023-03-01T19:08:48.177Z,2.50
2023-03-01T19:11:19.320Z,2.75
2023-03-01T19:13:47.801Z,2.60
2023-03-01T19:16:20.364Z,2.47
2023-03-01T19:18:51.398Z,2.88
2023-03-01T19:21:20.483Z,2.88
2023-03-01T19:23:51.011Z,3.10
2023-03-01T19:26:20.911Z,2.83
2023-03-01T19:28:48.413Z,3.17
2023-03-01T19:31:18.000Z,3.00
2023-03-01T19:33:45.199Z,2.78
2023-03-01T19:36:13.855Z,3.03
2023-03-01T19:38:48.017Z,3.70
2023-03-01T19:41:17.451Z,3.10
2023-03-01T19:43:47.137Z,2.70
2023-03-01T19:46:17.732Z,3.00
2023-03-01T19:48:44.997Z,3.15
2023-03-01T19:51:12.752Z,3.17
2023-03-01T19:53:40.551Z,3.08
2023-03-01T19:56:08.062Z,6.28
2023-03-01T19:58:34.946Z,7.13
2023-03-01T20:01:01.879Z,9.98
2023-03-01T20:03:30.961Z,7.60
2023-03-01T20:05:58.516Z,6.10
2023-03-01T20:08:25.944Z,4.90
2023-03-01T20:10:52.776Z,4.55
2023-03-01T20:13:21.154Z,3.75
2023-03-01T20:15:48.619Z,4.10
2023-03-01T20:18:18.103Z,3.43
2023-03-01T20:20:49.212Z,4.32
2023-03-01T20:23:17.983Z,6.07
2023-03-01T20:25:46.500Z,5.40
2023-03-01T20:28:13.530Z,4.28
2023-03-01T20:30:40.732Z,4.32
2023-03-01T20:33:07.890Z,3.53
2023-03-01T20:35:36.322Z,3.75
2023-03-01T20:38:03.684Z,4.05
2023-03-01T20:40:31.144Z,3.70
2023-03-01T20:42:59.724Z,3.47
2023-03-01T20:45:28.187Z,3.42
2023-03-01T20:47:55.398Z,3.50
2023-03-01T20:50:22.274Z,3.67
2023-03-01T20:52:49.202Z,3.75
2023-03-01T20:55:16.205Z,3.58
2023-03-01T20:57:43.596Z,13.33
2023-03-01T21:00:11.035Z,3.90
2023-03-01T21:02:39.003Z,3.53
2023-03-01T21:05:06.541Z,3.50
2023-03-01T21:07:33.367Z,3.40
2023-03-01T21:10:00.400Z,3.20
2023-03-01T21:12:27.411Z,3.20
2023-03-01T21:14:54.198Z,3.13
2023-03-01T21:17:21.366Z,3.28
2023-03-01T21:19:50.853Z,3.30
2023-03-01T21:22:18.049Z,3.33
2023-03-01T21:24:45.133Z,3.55
2023-03-01T21:27:12.206Z,3.40
2023-03-01T21:29:41.603Z,3.27
2023-03-01T21:32:09.759Z,3.55
2023-03-01T21:34:37.364Z,3.47
2023-03-01T21:37:05.348Z,3.40
2023-03-01T21:39:32.843Z,2.90
2023-03-01T21:42:04.151Z,3.45
2023-03-01T21:44:31.907Z,3.40
2023-03-01T21:46:59.162Z,3.30
2023-03-01T21:49:27.013Z,3.22
2023-03-01T21:51:54.086Z,3.05
2023-03-01T21:54:21.200Z,3.80
2023-03-01T21:56:49.259Z,3.30
2023-03-01T21:59:22.387Z,3.70
2023-03-01T22:01:50.894Z,3.92
2023-03-01T22:04:19.990Z,3.55
2023-03-01T22:06:47.074Z,3.20
2023-03-01T22:09:19.467Z,3.27
2023-03-01T22:11:52.747Z,3.47
2023-03-01T22:14:20.911Z,3.67
2023-03-01T22:16:51.214Z,3.55
2023-03-01T22:19:18.312Z,3.85
2023-03-01T22:21:49.594Z,3.47
2023-03-01T22:24:22.781Z,3.60
2023-03-01T22:26:50.657Z,3.63
2023-03-01T22:29:21.492Z,3.72
2023-03-01T22:31:48.787Z,3.60
2023-03-01T22:34:17.000Z,3.53
2023-03-01T22:36:44.788Z,3.42
2023-03-01T22:39:13.524Z,3.75
2023-03-01T22:41:44.278Z,3.60
2023-03-01T22:44:16.862Z,3.88
2023-03-01T22:46:44.425Z,3.50
2023-03-01T22:49:11.451Z,3.47
2023-03-01T22:51:40.442Z,3.53
2023-03-01T22:54:09.220Z,3.30
2023-03-01T22:56:38.341Z,3.83
2023-03-01T22:59:09.696Z,3.40
2023-03-01T23:01:38.601Z,3.75
2023-03-01T23:04:05.512Z,3.80
2023-03-01T23:06:32.912Z,3.73
2023-03-01T23:09:03.100Z,3.42
2023-03-01T23:11:30.105Z,3.95
2023-03-01T23:13:58.639Z,3.75
2023-03-01T23:16:26.476Z,3.78
2023-03-01T23:18:55.497Z,3.67
2023-03-01T23:21:23.001Z,3.80
2023-03-01T23:23:50.448Z,3.80
2023-03-01T23:26:18.411Z,3.85
2023-03-01T23:31:14.822Z,3.50
2023-03-01T23:33:45.055Z,4.00
2023-03-01T23:36:23.659Z,3.47
2023-03-01T23:38:52.894Z,3.80
2023-03-01T23:41:22.455Z,3.40
2023-03-01T23:43:52.649Z,3.70
2023-03-01T23:46:21.246Z,3.83
2023-03-01T23:48:48.701Z,3.60
2023-03-01T23:51:17.706Z,3.88
2023-03-01T23:53:54.501Z,4.00
2023-03-01T23:56:30.255Z,3.80
2023-03-01T23:58:59.523Z,3.58
